sensor_id;sensor_type;location;lat;lon;timestamp;P1;durP1;ratioP1;P2;durP2;ratioP2
4698;SDS011;33708;49.466;11.176;2023-07-16T00:02:03;9.53;;;6.47;;
4698;SDS011;33708;49.466;11.176;2023-07-16T00:04:30;9.60;;;6.40;;
4698;SDS011;33708;49.466;11.176;2023-07-16T00:06:56;10.03;;;7.20;;
4698;SDS011;33708;49.466;11.176;2023-07-16T00:09:22;10.60;;;6.50;;
4698;SDS011;33708;49.466;11.176;2023-07-16T00:11:49;7.60;;;5.70;;
4698;SDS011;33708;49.466;11.176;2023-07-16T00:14:14;10.53;;;5.60;;
4698;SDS011;33708;49.466;11.176;2023-07-16T00:16:40;8.30;;;5.40;;
4698;SDS011;33708;49.466;11.176;2023-07-16T00:19:05;9.40;;;7.00;;
4698;SDS011;33708;49.466;11.176;2023-07-16T00:21:31;6.93;;;5.60;;
4698;SDS011;33708;49.466;11.176;2023-07-16T00:23:56;11.27;;;6.80;;
4698;SDS011;33708;49.466;11.176;2023-07-16T00:26:22;7.33;;;6.27;;
4698;SDS011;33708;49.466;11.176;2023-07-16T00:28:48;7.30;;;5.80;;
4698;SDS011;33708;49.466;11.176;2023-07-16T00:31:13;7.60;;;6.03;;
4698;SDS011;33708;49.466;11.176;2023-07-16T00:33:39;8.50;;;6.10;;
4698;SDS011;33708;49.466;11.176;2023-07-16T00:36:04;7.43;;;6.17;;
4698;SDS011;33708;49.466;11.176;2023-07-16T00:38:30;10.00;;;6.50;;
4698;SDS011;33708;49.466;11.176;2023-07-16T00:40:56;7.70;;;6.10;;
4698;SDS011;33708;49.466;11.176;2023-07-16T00:43:21;10.23;;;6.93;;
4698;SDS011;33708;49.466;11.176;2023-07-16T00:45:47;8.70;;;6.10;;
4698;SDS011;33708;49.466;11.176;2023-07-16T00:48:14;10.60;;;6.93;;
4698;SDS011;33708;49.466;11.176;2023-07-16T00:50:39;13.90;;;7.07;;
4698;SDS011;33708;49.466;11.176;2023-07-16T00:53:06;8.37;;;6.17;;
4698;SDS011;33708;49.466;11.176;2023-07-16T00:55:37;10.50;;;6.87;;
4698;SDS011;33708;49.466;11.176;2023-07-16T00:58:04;8.80;;;6.17;;
4698;SDS011;33708;49.466;11.176;2023-07-16T01:00:34;9.00;;;5.90;;
4698;SDS011;33708;49.466;11.176;2023-07-16T01:03:01;7.90;;;6.13;;
4698;SDS011;33708;49.466;11.176;2023-07-16T01:05:30;12.43;;;6.60;;
4698;SDS011;33708;49.466;11.176;2023-07-16T01:08:04;9.50;;;6.87;;
4698;SDS011;33708;49.466;11.176;2023-07-16T01:10:33;11.47;;;6.30;;
4698;SDS011;33708;49.466;11.176;2023-07-16T01:12:59;8.70;;;6.03;;
4698;SDS011;33708;49.466;11.176;2023-07-16T01:15:25;8.93;;;6.50;;
4698;SDS011;33708;49.466;11.176;2023-07-16T01:17:51;9.53;;;7.00;;
4698;SDS011;33708;49.466;11.176;2023-07-16T01:20:16;17.20;;;6.40;;
4698;SDS011;33708;49.466;11.176;2023-07-16T01:22:52;9.60;;;6.20;;
4698;SDS011;33708;49.466;11.176;2023-07-16T01:25:35;9.70;;;5.23;;
4698;SDS011;33708;49.466;11.176;2023-07-16T01:30:41;13.20;;;4.67;;
4698;SDS011;33708;49.466;11.176;2023-07-16T01:33:09;7.93;;;3.90;;
4698;SDS011;33708;49.466;11.176;2023-07-16T01:35:37;13.37;;;4.47;;
4698;SDS011;33708;49.466;11.176;2023-07-16T01:38:04;9.07;;;4.33;;
4698;SDS011;33708;49.466;11.176;2023-07-16T01:40:30;8.70;;;4.03;;
4698;SDS011;33708;49.466;11.176;2023-07-16T01:42:56;5.40;;;3.30;;
4698;SDS011;33708;49.466;11.176;2023-07-16T01:45:22;6.30;;;3.47;;
4698;SDS011;33708;49.466;11.176;2023-07-16T01:50:31;7.10;;;3.77;;
4698;SDS011;33708;49.466;11.176;2023-07-16T01:52:57;7.70;;;3.33;;
4698;SDS011;33708;49.466;11.176;2023-07-16T01:55:22;8.40;;;3.90;;
4698;SDS011;33708;49.466;11.176;2023-07-16T01:57:48;4.47;;;3.50;;
4698;SDS011;33708;49.466;11.176;2023-07-16T02:00:14;4.23;;;2.67;;
4698;SDS011;33708;49.466;11.176;2023-07-16T02:02:39;7.77;;;3.00;;
4698;SDS011;33708;49.466;11.176;2023-07-16T02:05:05;7.20;;;3.23;;
4698;SDS011;33708;49.466;11.176;2023-07-16T02:07:31;8.40;;;3.20;;
4698;SDS011;33708;49.466;11.176;2023-07-16T02:09:56;8.13;;;3.00;;
4698;SDS011;33708;49.466;11.176;2023-07-16T02:12:22;7.30;;;2.90;;
4698;SDS011;33708;49.466;11.176;2023-07-16T02:14:48;6.10;;;2.57;;
4698;SDS011;33708;49.466;11.176;2023-07-16T02:17:13;7.53;;;2.87;;
4698;SDS011;33708;49.466;11.176;2023-07-16T02:19:39;8.27;;;3.00;;
4698;SDS011;33708;49.466;11.176;2023-07-16T02:22:04;4.93;;;3.07;;
4698;SDS011;33708;49.466;11.176;2023-07-16T02:24:30;5.07;;;2.83;;
4698;SDS011;33708;49.466;11.176;2023-07-16T02:26:55;4.67;;;3.10;;
4698;SDS011;33708;49.466;11.176;2023-07-16T02:29:21;9.20;;;3.20;;
4698;SDS011;33708;49.466;11.176;2023-07-16T02:31:47;12.80;;;3.20;;
4698;SDS011;33708;49.466;11.176;2023-07-16T02:34:13;7.53;;;2.60;;
4698;SDS011;33708;49.466;11.176;2023-07-16T02:36:39;7.70;;;4.00;;
4698;SDS011;33708;49.466;11.176;2023-07-16T02:39:04;12.83;;;3.20;;
4698;SDS011;33708;49.466;11.176;2023-07-16T02:41:30;8.40;;;2.77;;
4698;SDS011;33708;49.466;11.176;2023-07-16T02:43:59;4.67;;;2.70;;
4698;SDS011;33708;49.466;11.176;2023-07-16T02:46:29;4.60;;;3.17;;
4698;SDS011;33708;49.466;11.176;2023-07-16T02:48:55;6.40;;;2.67;;
4698;SDS011;33708;49.466;11.176;2023-07-16T02:51:21;8.17;;;3.27;;
4698;SDS011;33708;49.466;11.176;2023-07-16T02:53:46;5.87;;;3.27;;
4698;SDS011;33708;49.466;11.176;2023-07-16T02:56:12;4.03;;;2.77;;
4698;SDS011;33708;49.466;11.176;2023-07-16T02:58:38;4.90;;;2.67;;
4698;SDS011;33708;49.466;11.176;2023-07-16T03:01:03;6.70;;;3.10;;
4698;SDS011;33708;49.466;11.176;2023-07-16T03:03:29;7.67;;;2.57;;
4698;SDS011;33708;49.466;11.176;2023-07-16T03:05:54;8.60;;;2.70;;
4698;SDS011;33708;49.466;11.176;2023-07-16T03:08:20;8.63;;;3.00;;
4698;SDS011;33708;49.466;11.176;2023-07-16T03:10:46;8.53;;;2.60;;
4698;SDS011;33708;49.466;11.176;2023-07-16T03:13:11;7.43;;;2.80;;
4698;SDS011;33708;49.466;11.176;2023-07-16T03:15:37;7.23;;;2.30;;
4698;SDS011;33708;49.466;11.176;2023-07-16T03:18:02;7.00;;;2.50;;
4698;SDS011;33708;49.466;11.176;2023-07-16T03:20:28;8.87;;;2.80;;
4698;SDS011;33708;49.466;11.176;2023-07-16T03:22:53;5.27;;;2.53;;
4698;SDS011;33708;49.466;11.176;2023-07-16T03:25:19;5.67;;;2.40;;
4698;SDS011;33708;49.466;11.176;2023-07-16T03:27:45;7.93;;;2.40;;
4698;SDS011;33708;49.466;11.176;2023-07-16T03:30:10;5.50;;;2.23;;
4698;SDS011;33708;49.466;11.176;2023-07-16T03:32:36;5.30;;;2.87;;
4698;SDS011;33708;49.466;11.176;2023-07-16T03:35:02;4.20;;;2.40;;
4698;SDS011;33708;49.466;11.176;2023-07-16T03:37:27;6.20;;;2.67;;
4698;SDS011;33708;49.466;11.176;2023-07-16T03:39:53;4.27;;;2.30;;
4698;SDS011;33708;49.466;11.176;2023-07-16T03:42:19;4.60;;;2.20;;
4698;SDS011;33708;49.466;11.176;2023-07-16T03:44:44;4.10;;;2.20;;
4698;SDS011;33708;49.466;11.176;2023-07-16T03:47:10;2.73;;;1.80;;
4698;SDS011;33708;49.466;11.176;2023-07-16T03:49:35;7.03;;;2.40;;
4698;SDS011;33708;49.466;11.176;2023-07-16T03:52:01;7.63;;;2.67;;
4698;SDS011;33708;49.466;11.176;2023-07-16T03:54:27;3.27;;;2.03;;
4698;SDS011;33708;49.466;11.176;2023-07-16T03:56:52;11.13;;;2.23;;
4698;SDS011;33708;49.466;11.176;2023-07-16T03:59:18;3.70;;;2.07;;
4698;SDS011;33708;49.466;11.176;2023-07-16T04:01:43;4.70;;;2.00;;
4698;SDS011;33708;49.466;11.176;2023-07-16T04:04:09;5.70;;;2.03;;
4698;SDS011;33708;49.466;11.176;2023-07-16T04:06:35;4.60;;;2.03;;
4698;SDS011;33708;49.466;11.176;2023-07-16T04:09:00;4.90;;;2.20;;
4698;SDS011;33708;49.466;11.176;2023-07-16T04:11:26;4.23;;;1.83;;
4698;SDS011;33708;49.466;11.176;2023-07-16T04:13:51;4.03;;;2.07;;
4698;SDS011;33708;49.466;11.176;2023-07-16T04:16:17;4.20;;;1.80;;
4698;SDS011;33708;49.466;11.176;2023-07-16T04:18:42;3.90;;;2.00;;
4698;SDS011;33708;49.466;11.176;2023-07-16T04:21:08;5.00;;;2.00;;
4698;SDS011;33708;49.466;11.176;2023-07-16T04:23:33;4.43;;;1.80;;
4698;SDS011;33708;49.466;11.176;2023-07-16T04:26:00;8.00;;;2.33;;
4698;SDS011;33708;49.466;11.176;2023-07-16T04:28:25;3.70;;;2.10;;
4698;SDS011;33708;49.466;11.176;2023-07-16T04:30:51;6.30;;;1.80;;
4698;SDS011;33708;49.466;11.176;2023-07-16T04:33:17;4.00;;;1.73;;
4698;SDS011;33708;49.466;11.176;2023-07-16T04:35:44;4.13;;;1.40;;
4698;SDS011;33708;49.466;11.176;2023-07-16T04:38:09;3.23;;;1.60;;
4698;SDS011;33708;49.466;11.176;2023-07-16T04:40:35;8.13;;;1.70;;
4698;SDS011;33708;49.466;11.176;2023-07-16T04:43:00;3.33;;;1.20;;
4698;SDS011;33708;49.466;11.176;2023-07-16T04:45:26;5.20;;;1.40;;
4698;SDS011;33708;49.466;11.176;2023-07-16T04:47:51;3.50;;;1.73;;
4698;SDS011;33708;49.466;11.176;2023-07-16T04:50:17;2.83;;;1.40;;
4698;SDS011;33708;49.466;11.176;2023-07-16T04:52:43;2.40;;;1.23;;
4698;SDS011;33708;49.466;11.176;2023-07-16T04:55:08;6.50;;;1.70;;
4698;SDS011;33708;49.466;11.176;2023-07-16T04:57:34;4.60;;;1.27;;
4698;SDS011;33708;49.466;11.176;2023-07-16T04:59:59;2.70;;;1.33;;
4698;SDS011;33708;49.466;11.176;2023-07-16T05:02:25;3.40;;;1.73;;
4698;SDS011;33708;49.466;11.176;2023-07-16T05:04:51;5.70;;;1.50;;
4698;SDS011;33708;49.466;11.176;2023-07-16T05:07:16;5.60;;;1.40;;
4698;SDS011;33708;49.466;11.176;2023-07-16T05:09:42;5.27;;;1.60;;
4698;SDS011;33708;49.466;11.176;2023-07-16T05:12:08;9.83;;;1.50;;
4698;SDS011;33708;49.466;11.176;2023-07-16T05:14:42;4.57;;;1.37;;
4698;SDS011;33708;49.466;11.176;2023-07-16T05:17:10;4.30;;;1.57;;
4698;SDS011;33708;49.466;11.176;2023-07-16T05:19:36;4.63;;;1.17;;
4698;SDS011;33708;49.466;11.176;2023-07-16T05:22:02;3.60;;;1.33;;
4698;SDS011;33708;49.466;11.176;2023-07-16T05:24:28;6.03;;;1.90;;
4698;SDS011;33708;49.466;11.176;2023-07-16T05:26:53;5.80;;;1.80;;
4698;SDS011;33708;49.466;11.176;2023-07-16T05:29:19;6.70;;;1.63;;
4698;SDS011;33708;49.466;11.176;2023-07-16T05:31:45;6.10;;;2.00;;
4698;SDS011;33708;49.466;11.176;2023-07-16T05:34:11;5.60;;;2.07;;
4698;SDS011;33708;49.466;11.176;2023-07-16T05:36:37;5.97;;;1.80;;
4698;SDS011;33708;49.466;11.176;2023-07-16T05:39:03;5.63;;;1.70;;
4698;SDS011;33708;49.466;11.176;2023-07-16T05:41:28;5.23;;;1.57;;
4698;SDS011;33708;49.466;11.176;2023-07-16T05:43:54;5.00;;;1.90;;
4698;SDS011;33708;49.466;11.176;2023-07-16T05:46:19;4.07;;;1.93;;
4698;SDS011;33708;49.466;11.176;2023-07-16T05:48:45;3.87;;;1.70;;
4698;SDS011;33708;49.466;11.176;2023-07-16T05:51:10;9.00;;;2.03;;
4698;SDS011;33708;49.466;11.176;2023-07-16T05:53:36;3.90;;;1.80;;
4698;SDS011;33708;49.466;11.176;2023-07-16T05:56:02;14.20;;;1.70;;
4698;SDS011;33708;49.466;11.176;2023-07-16T05:58:28;4.80;;;1.60;;
4698;SDS011;33708;49.466;11.176;2023-07-16T06:00:54;3.90;;;2.00;;
4698;SDS011;33708;49.466;11.176;2023-07-16T06:03:19;8.73;;;2.13;;
4698;SDS011;33708;49.466;11.176;2023-07-16T06:05:45;3.30;;;1.60;;
4698;SDS011;33708;49.466;11.176;2023-07-16T06:08:11;8.90;;;1.97;;
4698;SDS011;33708;49.466;11.176;2023-07-16T06:10:37;7.30;;;1.80;;
4698;SDS011;33708;49.466;11.176;2023-07-16T06:13:04;2.73;;;1.50;;
4698;SDS011;33708;49.466;11.176;2023-07-16T06:15:29;5.67;;;1.67;;
4698;SDS011;33708;49.466;11.176;2023-07-16T06:17:55;10.50;;;1.90;;
4698;SDS011;33708;49.466;11.176;2023-07-16T06:20:20;4.20;;;1.70;;
4698;SDS011;33708;49.466;11.176;2023-07-16T06:22:46;5.80;;;1.60;;
4698;SDS011;33708;49.466;11.176;2023-07-16T06:25:12;11.13;;;2.50;;
4698;SDS011;33708;49.466;11.176;2023-07-16T06:27:37;6.37;;;1.70;;
4698;SDS011;33708;49.466;11.176;2023-07-16T06:30:03;10.70;;;1.97;;
4698;SDS011;33708;49.466;11.176;2023-07-16T06:32:30;8.23;;;2.47;;
4698;SDS011;33708;49.466;11.176;2023-07-16T06:34:56;7.10;;;2.30;;
4698;SDS011;33708;49.466;11.176;2023-07-16T06:37:22;5.63;;;1.67;;
4698;SDS011;33708;49.466;11.176;2023-07-16T06:39:48;8.13;;;1.90;;
4698;SDS011;33708;49.466;11.176;2023-07-16T06:42:14;6.97;;;1.93;;
4698;SDS011;33708;49.466;11.176;2023-07-16T06:44:40;4.97;;;1.90;;
4698;SDS011;33708;49.466;11.176;2023-07-16T06:47:05;7.80;;;2.23;;
4698;SDS011;33708;49.466;11.176;2023-07-16T06:49:31;5.70;;;2.30;;
4698;SDS011;33708;49.466;11.176;2023-07-16T06:51:57;7.07;;;1.80;;
4698;SDS011;33708;49.466;11.176;2023-07-16T06:54:22;9.23;;;2.63;;
4698;SDS011;33708;49.466;11.176;2023-07-16T06:56:48;7.87;;;1.83;;
4698;SDS011;33708;49.466;11.176;2023-07-16T06:59:13;8.63;;;2.03;;
4698;SDS011;33708;49.466;11.176;2023-07-16T07:01:39;9.30;;;2.40;;
4698;SDS011;33708;49.466;11.176;2023-07-16T07:04:05;5.73;;;1.70;;
4698;SDS011;33708;49.466;11.176;2023-07-16T07:06:30;8.87;;;2.30;;
4698;SDS011;33708;49.466;11.176;2023-07-16T07:08:56;6.10;;;1.97;;
4698;SDS011;33708;49.466;11.176;2023-07-16T07:11:21;5.63;;;1.93;;
4698;SDS011;33708;49.466;11.176;2023-07-16T07:13:47;5.30;;;1.80;;
4698;SDS011;33708;49.466;11.176;2023-07-16T07:16:13;6.13;;;1.80;;
4698;SDS011;33708;49.466;11.176;2023-07-16T07:18:38;8.07;;;2.47;;
4698;SDS011;33708;49.466;11.176;2023-07-16T07:21:04;7.87;;;2.07;;
4698;SDS011;33708;49.466;11.176;2023-07-16T07:23:29;8.70;;;2.77;;
4698;SDS011;33708;49.466;11.176;2023-07-16T07:25:55;5.27;;;1.90;;
4698;SDS011;33708;49.466;11.176;2023-07-16T07:28:20;4.80;;;2.03;;
4698;SDS011;33708;49.466;11.176;2023-07-16T07:30:46;4.73;;;1.63;;
4698;SDS011;33708;49.466;11.176;2023-07-16T07:33:12;4.20;;;1.73;;
4698;SDS011;33708;49.466;11.176;2023-07-16T07:35:37;4.33;;;1.50;;
4698;SDS011;33708;49.466;11.176;2023-07-16T07:38:03;10.70;;;1.90;;
4698;SDS011;33708;49.466;11.176;2023-07-16T07:40:29;7.63;;;1.73;;
4698;SDS011;33708;49.466;11.176;2023-07-16T07:42:54;6.77;;;2.10;;
4698;SDS011;33708;49.466;11.176;2023-07-16T07:45:20;4.60;;;1.80;;
4698;SDS011;33708;49.466;11.176;2023-07-16T07:47:45;6.10;;;2.10;;
4698;SDS011;33708;49.466;11.176;2023-07-16T07:50:11;5.80;;;2.00;;
4698;SDS011;33708;49.466;11.176;2023-07-16T07:52:37;5.40;;;1.77;;
4698;SDS011;33708;49.466;11.176;2023-07-16T07:55:03;8.27;;;2.03;;
4698;SDS011;33708;49.466;11.176;2023-07-16T07:57:29;5.73;;;1.97;;
4698;SDS011;33708;49.466;11.176;2023-07-16T07:59:54;5.90;;;1.73;;
4698;SDS011;33708;49.466;11.176;2023-07-16T08:02:24;11.63;;;2.40;;
4698;SDS011;33708;49.466;11.176;2023-07-16T08:04:53;8.23;;;1.90;;
4698;SDS011;33708;49.466;11.176;2023-07-16T08:07:20;8.87;;;2.20;;
4698;SDS011;33708;49.466;11.176;2023-07-16T08:09:46;6.80;;;1.77;;
4698;SDS011;33708;49.466;11.176;2023-07-16T08:12:12;5.67;;;1.97;;
4698;SDS011;33708;49.466;11.176;2023-07-16T08:14:39;6.13;;;1.80;;
4698;SDS011;33708;49.466;11.176;2023-07-16T08:17:04;11.23;;;2.27;;
4698;SDS011;33708;49.466;11.176;2023-07-16T08:19:30;11.13;;;2.73;;
4698;SDS011;33708;49.466;11.176;2023-07-16T08:21:56;7.30;;;2.10;;
4698;SDS011;33708;49.466;11.176;2023-07-16T08:24:21;9.70;;;2.20;;
4698;SDS011;33708;49.466;11.176;2023-07-16T08:26:47;10.77;;;1.97;;
4698;SDS011;33708;49.466;11.176;2023-07-16T08:29:12;12.03;;;2.40;;
4698;SDS011;33708;49.466;11.176;2023-07-16T08:31:38;7.93;;;2.50;;
4698;SDS011;33708;49.466;11.176;2023-07-16T08:34:05;8.07;;;2.30;;
4698;SDS011;33708;49.466;11.176;2023-07-16T08:36:32;5.00;;;1.87;;
4698;SDS011;33708;49.466;11.176;2023-07-16T08:38:58;10.70;;;2.27;;
4698;SDS011;33708;49.466;11.176;2023-07-16T08:41:23;7.90;;;2.30;;
4698;SDS011;33708;49.466;11.176;2023-07-16T08:43:49;8.17;;;1.90;;
4698;SDS011;33708;49.466;11.176;2023-07-16T08:46:16;7.43;;;2.20;;
4698;SDS011;33708;49.466;11.176;2023-07-16T08:48:42;7.40;;;2.80;;
4698;SDS011;33708;49.466;11.176;2023-07-16T08:51:09;8.57;;;2.30;;
4698;SDS011;33708;49.466;11.176;2023-07-16T08:53:36;6.67;;;2.00;;
4698;SDS011;33708;49.466;11.176;2023-07-16T08:56:02;8.20;;;2.37;;
4698;SDS011;33708;49.466;11.176;2023-07-16T08:58:30;12.30;;;2.07;;
4698;SDS011;33708;49.466;11.176;2023-07-16T09:00:56;11.53;;;2.70;;
4698;SDS011;33708;49.466;11.176;2023-07-16T09:03:21;6.23;;;2.10;;
4698;SDS011;33708;49.466;11.176;2023-07-16T09:05:47;13.77;;;2.37;;
4698;SDS011;33708;49.466;11.176;2023-07-16T09:08:13;7.80;;;2.17;;
4698;SDS011;33708;49.466;11.176;2023-07-16T09:10:42;7.17;;;2.00;;
4698;SDS011;33708;49.466;11.176;2023-07-16T09:13:07;5.90;;;2.27;;
4698;SDS011;33708;49.466;11.176;2023-07-16T09:15:33;9.63;;;2.83;;
4698;SDS011;33708;49.466;11.176;2023-07-16T09:17:59;8.23;;;2.27;;
4698;SDS011;33708;49.466;11.176;2023-07-16T09:20:25;7.60;;;2.70;;
4698;SDS011;33708;49.466;11.176;2023-07-16T09:22:55;6.77;;;2.23;;
4698;SDS011;33708;49.466;11.176;2023-07-16T09:25:28;10.33;;;2.77;;
4698;SDS011;33708;49.466;11.176;2023-07-16T09:27:54;6.07;;;1.80;;
4698;SDS011;33708;49.466;11.176;2023-07-16T09:30:20;10.23;;;2.80;;
4698;SDS011;33708;49.466;11.176;2023-07-16T09:32:46;6.83;;;2.57;;
4698;SDS011;33708;49.466;11.176;2023-07-16T09:35:13;7.13;;;2.20;;
4698;SDS011;33708;49.466;11.176;2023-07-16T09:37:40;10.17;;;2.47;;
4698;SDS011;33708;49.466;11.176;2023-07-16T09:40:07;13.03;;;2.40;;
4698;SDS011;33708;49.466;11.176;2023-07-16T09:42:43;5.53;;;2.10;;
4698;SDS011;33708;49.466;11.176;2023-07-16T09:45:18;9.23;;;2.50;;
4698;SDS011;33708;49.466;11.176;2023-07-16T09:47:44;5.83;;;2.30;;
4698;SDS011;33708;49.466;11.176;2023-07-16T09:50:10;10.43;;;2.67;;
4698;SDS011;33708;49.466;11.176;2023-07-16T09:52:36;9.87;;;2.67;;
4698;SDS011;33708;49.466;11.176;2023-07-16T09:55:04;7.73;;;3.47;;
4698;SDS011;33708;49.466;11.176;2023-07-16T09:57:34;8.93;;;2.87;;
4698;SDS011;33708;49.466;11.176;2023-07-16T10:00:02;7.80;;;2.83;;
4698;SDS011;33708;49.466;11.176;2023-07-16T10:02:33;7.80;;;2.40;;
4698;SDS011;33708;49.466;11.176;2023-07-16T10:05:10;5.73;;;2.30;;
4698;SDS011;33708;49.466;11.176;2023-07-16T10:07:40;13.63;;;2.63;;
4698;SDS011;33708;49.466;11.176;2023-07-16T10:10:07;7.67;;;2.37;;
4698;SDS011;33708;49.466;11.176;2023-07-16T10:12:35;8.43;;;2.00;;
4698;SDS011;33708;49.466;11.176;2023-07-16T10:15:01;7.93;;;2.57;;
4698;SDS011;33708;49.466;11.176;2023-07-16T10:17:29;10.43;;;2.53;;
4698;SDS011;33708;49.466;11.176;2023-07-16T10:20:06;6.23;;;2.40;;
4698;SDS011;33708;49.466;11.176;2023-07-16T10:25:10;9.27;;;2.50;;
4698;SDS011;33708;49.466;11.176;2023-07-16T10:27:49;8.70;;;2.57;;
4698;SDS011;33708;49.466;11.176;2023-07-16T10:30:16;8.63;;;2.07;;
4698;SDS011;33708;49.466;11.176;2023-07-16T10:32:43;8.30;;;2.40;;
4698;SDS011;33708;49.466;11.176;2023-07-16T10:35:09;11.00;;;2.73;;
4698;SDS011;33708;49.466;11.176;2023-07-16T10:37:35;7.07;;;2.37;;
4698;SDS011;33708;49.466;11.176;2023-07-16T10:40:02;5.80;;;2.50;;
4698;SDS011;33708;49.466;11.176;2023-07-16T10:42:28;10.00;;;2.87;;
4698;SDS011;33708;49.466;11.176;2023-07-16T10:44:57;5.17;;;2.20;;
4698;SDS011;33708;49.466;11.176;2023-07-16T10:47:29;9.30;;;3.10;;
4698;SDS011;33708;49.466;11.176;2023-07-16T10:49:55;11.40;;;2.40;;
4698;SDS011;33708;49.466;11.176;2023-07-16T10:52:21;10.03;;;2.30;;
4698;SDS011;33708;49.466;11.176;2023-07-16T10:54:48;9.73;;;2.70;;
4698;SDS011;33708;49.466;11.176;2023-07-16T10:57:19;8.97;;;2.00;;
4698;SDS011;33708;49.466;11.176;2023-07-16T10:59:46;9.43;;;2.53;;
4698;SDS011;33708;49.466;11.176;2023-07-16T11:02:13;6.13;;;2.30;;
4698;SDS011;33708;49.466;11.176;2023-07-16T11:04:40;5.37;;;2.20;;
4698;SDS011;33708;49.466;11.176;2023-07-16T11:07:06;8.10;;;2.67;;
4698;SDS011;33708;49.466;11.176;2023-07-16T11:09:42;6.43;;;2.57;;
4698;SDS011;33708;49.466;11.176;2023-07-16T11:12:20;7.00;;;2.23;;
4698;SDS011;33708;49.466;11.176;2023-07-16T11:14:54;8.13;;;2.77;;
4698;SDS011;33708;49.466;11.176;2023-07-16T11:17:21;7.53;;;2.27;;
4698;SDS011;33708;49.466;11.176;2023-07-16T11:19:50;6.93;;;2.03;;
4698;SDS011;33708;49.466;11.176;2023-07-16T11:22:17;8.90;;;2.10;;
4698;SDS011;33708;49.466;11.176;2023-07-16T11:24:47;6.30;;;2.63;;
4698;SDS011;33708;49.466;11.176;2023-07-16T11:27:15;6.40;;;2.10;;
4698;SDS011;33708;49.466;11.176;2023-07-16T11:29:46;14.33;;;3.17;;
4698;SDS011;33708;49.466;11.176;2023-07-16T11:32:34;8.20;;;2.57;;
4698;SDS011;33708;49.466;11.176;2023-07-16T11:35:01;11.87;;;2.37;;
4698;SDS011;33708;49.466;11.176;2023-07-16T11:37:28;11.03;;;2.37;;
4698;SDS011;33708;49.466;11.176;2023-07-16T11:39:56;4.40;;;1.97;;
4698;SDS011;33708;49.466;11.176;2023-07-16T11:42:30;5.67;;;2.23;;
4698;SDS011;33708;49.466;11.176;2023-07-16T11:45:00;7.93;;;2.43;;
4698;SDS011;33708;49.466;11.176;2023-07-16T11:47:27;7.63;;;2.77;;
4698;SDS011;33708;49.466;11.176;2023-07-16T11:49:53;13.27;;;3.00;;
4698;SDS011;33708;49.466;11.176;2023-07-16T11:52:23;5.10;;;2.27;;
4698;SDS011;33708;49.466;11.176;2023-07-16T11:54:51;4.77;;;2.00;;
4698;SDS011;33708;49.466;11.176;2023-07-16T11:57:17;6.93;;;2.53;;
4698;SDS011;33708;49.466;11.176;2023-07-16T11:59:43;6.00;;;2.20;;
4698;SDS011;33708;49.466;11.176;2023-07-16T12:02:09;9.20;;;2.77;;
4698;SDS011;33708;49.466;11.176;2023-07-16T12:04:34;7.80;;;2.47;;
4698;SDS011;33708;49.466;11.176;2023-07-16T12:07:00;8.23;;;2.93;;
4698;SDS011;33708;49.466;11.176;2023-07-16T12:09:25;5.30;;;2.60;;
4698;SDS011;33708;49.466;11.176;2023-07-16T12:11:51;10.40;;;2.30;;
4698;SDS011;33708;49.466;11.176;2023-07-16T12:14:17;9.43;;;2.80;;
4698;SDS011;33708;49.466;11.176;2023-07-16T12:16:42;7.83;;;2.43;;
4698;SDS011;33708;49.466;11.176;2023-07-16T12:19:08;6.67;;;2.40;;
4698;SDS011;33708;49.466;11.176;2023-07-16T12:21:35;6.70;;;2.43;;
4698;SDS011;33708;49.466;11.176;2023-07-16T12:24:00;5.93;;;2.17;;
4698;SDS011;33708;49.466;11.176;2023-07-16T12:26:26;11.03;;;2.67;;
4698;SDS011;33708;49.466;11.176;2023-07-16T12:28:52;6.27;;;2.23;;
4698;SDS011;33708;49.466;11.176;2023-07-16T12:31:18;12.13;;;3.13;;
4698;SDS011;33708;49.466;11.176;2023-07-16T12:33:45;6.20;;;2.47;;
4698;SDS011;33708;49.466;11.176;2023-07-16T12:36:11;6.37;;;3.07;;
4698;SDS011;33708;49.466;11.176;2023-07-16T12:38:37;4.77;;;2.10;;
4698;SDS011;33708;49.466;11.176;2023-07-16T12:41:03;8.43;;;2.80;;
4698;SDS011;33708;49.466;11.176;2023-07-16T12:43:30;4.80;;;2.27;;
4698;SDS011;33708;49.466;11.176;2023-07-16T12:45:59;5.30;;;2.30;;
4698;SDS011;33708;49.466;11.176;2023-07-16T12:48:25;8.57;;;2.30;;
4698;SDS011;33708;49.466;11.176;2023-07-16T12:50:51;5.40;;;2.37;;
4698;SDS011;33708;49.466;11.176;2023-07-16T12:53:17;6.70;;;2.30;;
4698;SDS011;33708;49.466;11.176;2023-07-16T12:55:42;8.23;;;2.70;;
4698;SDS011;33708;49.466;11.176;2023-07-16T12:58:08;5.27;;;2.40;;
4698;SDS011;33708;49.466;11.176;2023-07-16T13:00:34;7.70;;;2.33;;
4698;SDS011;33708;49.466;11.176;2023-07-16T13:03:00;10.07;;;2.70;;
4698;SDS011;33708;49.466;11.176;2023-07-16T13:05:25;5.90;;;2.20;;
4698;SDS011;33708;49.466;11.176;2023-07-16T13:07:51;11.63;;;2.70;;
4698;SDS011;33708;49.466;11.176;2023-07-16T13:10:17;6.90;;;2.73;;
4698;SDS011;33708;49.466;11.176;2023-07-16T13:12:43;7.23;;;2.77;;
4698;SDS011;33708;49.466;11.176;2023-07-16T13:15:09;6.07;;;2.27;;
4698;SDS011;33708;49.466;11.176;2023-07-16T13:17:35;7.10;;;2.57;;
4698;SDS011;33708;49.466;11.176;2023-07-16T13:20:02;9.00;;;2.63;;
4698;SDS011;33708;49.466;11.176;2023-07-16T13:22:28;4.87;;;2.27;;
4698;SDS011;33708;49.466;11.176;2023-07-16T13:24:54;4.33;;;2.10;;
4698;SDS011;33708;49.466;11.176;2023-07-16T13:27:20;8.80;;;2.90;;
4698;SDS011;33708;49.466;11.176;2023-07-16T13:29:46;6.50;;;2.33;;
4698;SDS011;33708;49.466;11.176;2023-07-16T13:32:12;7.17;;;1.83;;
4698;SDS011;33708;49.466;11.176;2023-07-16T13:34:37;5.23;;;2.03;;
4698;SDS011;33708;49.466;11.176;2023-07-16T13:37:03;7.27;;;2.67;;
4698;SDS011;33708;49.466;11.176;2023-07-16T13:39:29;5.80;;;2.63;;
4698;SDS011;33708;49.466;11.176;2023-07-16T13:41:55;11.10;;;2.50;;
4698;SDS011;33708;49.466;11.176;2023-07-16T13:44:21;14.40;;;2.40;;
4698;SDS011;33708;49.466;11.176;2023-07-16T13:46:47;7.13;;;2.67;;
4698;SDS011;33708;49.466;11.176;2023-07-16T13:49:12;6.77;;;2.53;;
4698;SDS011;33708;49.466;11.176;2023-07-16T13:51:38;13.13;;;2.77;;
4698;SDS011;33708;49.466;11.176;2023-07-16T13:54:04;5.60;;;2.23;;
4698;SDS011;33708;49.466;11.176;2023-07-16T13:56:30;6.10;;;2.20;;
4698;SDS011;33708;49.466;11.176;2023-07-16T13:58:55;4.50;;;2.17;;
4698;SDS011;33708;49.466;11.176;2023-07-16T14:01:21;9.47;;;2.67;;
4698;SDS011;33708;49.466;11.176;2023-07-16T14:03:48;5.57;;;2.43;;
4698;SDS011;33708;49.466;11.176;2023-07-16T14:06:13;6.90;;;2.83;;
4698;SDS011;33708;49.466;11.176;2023-07-16T14:08:39;6.70;;;3.10;;
4698;SDS011;33708;49.466;11.176;2023-07-16T14:11:04;7.60;;;2.50;;
4698;SDS011;33708;49.466;11.176;2023-07-16T14:13:30;5.93;;;2.30;;
4698;SDS011;33708;49.466;11.176;2023-07-16T14:15:56;7.33;;;2.23;;
4698;SDS011;33708;49.466;11.176;2023-07-16T14:18:21;5.90;;;2.10;;
4698;SDS011;33708;49.466;11.176;2023-07-16T14:20:47;7.50;;;2.70;;
4698;SDS011;33708;49.466;11.176;2023-07-16T14:23:13;5.23;;;2.50;;
4698;SDS011;33708;49.466;11.176;2023-07-16T14:25:38;3.90;;;2.03;;
4698;SDS011;33708;49.466;11.176;2023-07-16T14:28:04;7.47;;;2.27;;
4698;SDS011;33708;49.466;11.176;2023-07-16T14:30:30;7.27;;;2.40;;
4698;SDS011;33708;49.466;11.176;2023-07-16T14:32:55;7.83;;;2.47;;
4698;SDS011;33708;49.466;11.176;2023-07-16T14:35:21;5.90;;;2.27;;
4698;SDS011;33708;49.466;11.176;2023-07-16T14:37:47;5.03;;;2.30;;
4698;SDS011;33708;49.466;11.176;2023-07-16T14:40:13;5.60;;;2.20;;
4698;SDS011;33708;49.466;11.176;2023-07-16T14:42:39;5.27;;;1.97;;
4698;SDS011;33708;49.466;11.176;2023-07-16T14:45:05;7.23;;;2.47;;
4698;SDS011;33708;49.466;11.176;2023-07-16T14:47:35;5.40;;;2.30;;
4698;SDS011;33708;49.466;11.176;2023-07-16T14:50:01;5.57;;;2.53;;